sensor_id;sensor_type;location;lat;lon;timestamp;P1;durP1;ratioP1;P2;durP2;ratioP2
1390;SDS011;690;51.454;7.194;2023-04-24T00:00:26;0.90;;;0.67;;
1390;SDS011;690;51.454;7.194;2023-04-24T00:02:52;1.60;;;0.90;;
1390;SDS011;690;51.454;7.194;2023-04-24T00:05:22;0.80;;;0.70;;
1390;SDS011;690;51.454;7.194;2023-04-24T00:07:49;1.30;;;0.90;;
1390;SDS011;690;51.454;7.194;2023-04-24T00:10:21;1.77;;;0.80;;
1390;SDS011;690;51.454;7.194;2023-04-24T00:12:49;1.33;;;1.17;;
1390;SDS011;690;51.454;7.194;2023-04-24T00:15:16;0.80;;;0.77;;
1390;SDS011;690;51.454;7.194;2023-04-24T00:17:43;1.83;;;1.00;;
1390;SDS011;690;51.454;7.194;2023-04-24T00:20:12;2.00;;;1.07;;
1390;SDS011;690;51.454;7.194;2023-04-24T00:22:40;2.07;;;0.90;;
1390;SDS011;690;51.454;7.194;2023-04-24T00:25:07;1.00;;;0.90;;
1390;SDS011;690;51.454;7.194;2023-04-24T00:27:36;1.20;;;0.83;;
1390;SDS011;690;51.454;7.194;2023-04-24T00:30:05;1.10;;;1.00;;
1390;SDS011;690;51.454;7.194;2023-04-24T00:32:33;1.20;;;1.10;;
1390;SDS011;690;51.454;7.194;2023-04-24T00:35:00;1.50;;;1.30;;
1390;SDS011;690;51.454;7.194;2023-04-24T00:37:27;1.70;;;1.60;;
1390;SDS011;690;51.454;7.194;2023-04-24T00:39:53;2.80;;;1.30;;
1390;SDS011;690;51.454;7.194;2023-04-24T00:42:22;1.57;;;1.20;;
1390;SDS011;690;51.454;7.194;2023-04-24T00:44:49;1.50;;;1.37;;
1390;SDS011;690;51.454;7.194;2023-04-24T00:47:18;1.17;;;1.07;;
1390;SDS011;690;51.454;7.194;2023-04-24T00:49:46;2.53;;;1.40;;
1390;SDS011;690;51.454;7.194;2023-04-24T00:52:13;3.23;;;1.50;;
1390;SDS011;690;51.454;7.194;2023-04-24T00:54:42;1.83;;;1.47;;
1390;SDS011;690;51.454;7.194;2023-04-24T00:57:09;1.07;;;1.00;;
1390;SDS011;690;51.454;7.194;2023-04-24T00:59:41;1.93;;;1.13;;
1390;SDS011;690;51.454;7.194;2023-04-24T01:02:08;1.47;;;1.37;;
1390;SDS011;690;51.454;7.194;2023-04-24T01:04:42;4.03;;;1.60;;
1390;SDS011;690;51.454;7.194;2023-04-24T01:07:09;4.47;;;1.93;;
1390;SDS011;690;51.454;7.194;2023-04-24T01:09:36;1.57;;;1.47;;
1390;SDS011;690;51.454;7.194;2023-04-24T01:12:04;1.23;;;1.13;;
1390;SDS011;690;51.454;7.194;2023-04-24T01:14:31;2.60;;;1.80;;
1390;SDS011;690;51.454;7.194;2023-04-24T01:16:58;2.30;;;1.57;;
1390;SDS011;690;51.454;7.194;2023-04-24T01:19:27;3.23;;;1.60;;
1390;SDS011;690;51.454;7.194;2023-04-24T01:21:56;1.97;;;1.77;;
1390;SDS011;690;51.454;7.194;2023-04-24T01:24:29;2.50;;;1.70;;
1390;SDS011;690;51.454;7.194;2023-04-24T01:26:56;2.40;;;1.90;;
1390;SDS011;690;51.454;7.194;2023-04-24T01:29:23;2.70;;;2.00;;
1390;SDS011;690;51.454;7.194;2023-04-24T01:31:50;2.50;;;1.93;;
1390;SDS011;690;51.454;7.194;2023-04-24T01:34:17;2.00;;;1.87;;
1390;SDS011;690;51.454;7.194;2023-04-24T01:36:46;2.13;;;2.03;;
1390;SDS011;690;51.454;7.194;2023-04-24T01:39:13;3.50;;;2.53;;
1390;SDS011;690;51.454;7.194;2023-04-24T01:41:43;3.63;;;2.47;;
1390;SDS011;690;51.454;7.194;2023-04-24T01:44:09;2.33;;;2.10;;
1390;SDS011;690;51.454;7.194;2023-04-24T01:46:36;4.60;;;2.33;;
1390;SDS011;690;51.454;7.194;2023-04-24T01:49:05;2.70;;;2.30;;
1390;SDS011;690;51.454;7.194;2023-04-24T01:51:32;2.77;;;2.33;;
1390;SDS011;690;51.454;7.194;2023-04-24T01:53:59;3.97;;;3.20;;
1390;SDS011;690;51.454;7.194;2023-04-24T01:56:26;2.60;;;2.23;;
1390;SDS011;690;51.454;7.194;2023-04-24T01:58:57;3.20;;;2.90;;
1390;SDS011;690;51.454;7.194;2023-04-24T02:01:24;3.13;;;2.70;;
1390;SDS011;690;51.454;7.194;2023-04-24T02:03:50;4.60;;;3.20;;
1390;SDS011;690;51.454;7.194;2023-04-24T02:06:17;5.70;;;3.70;;
1390;SDS011;690;51.454;7.194;2023-04-24T02:08:44;2.83;;;2.63;;
1390;SDS011;690;51.454;7.194;2023-04-24T02:11:11;3.60;;;3.30;;
1390;SDS011;690;51.454;7.194;2023-04-24T02:13:38;6.47;;;3.20;;
1390;SDS011;690;51.454;7.194;2023-04-24T02:16:06;5.07;;;3.20;;
1390;SDS011;690;51.454;7.194;2023-04-24T02:18:36;7.80;;;3.53;;
1390;SDS011;690;51.454;7.194;2023-04-24T02:21:02;6.60;;;3.40;;
1390;SDS011;690;51.454;7.194;2023-04-24T02:23:29;3.90;;;3.20;;
1390;SDS011;690;51.454;7.194;2023-04-24T02:25:56;4.90;;;3.50;;
1390;SDS011;690;51.454;7.194;2023-04-24T02:28:23;6.20;;;3.90;;
1390;SDS011;690;51.454;7.194;2023-04-24T02:30:50;4.70;;;4.00;;
1390;SDS011;690;51.454;7.194;2023-04-24T02:33:21;5.60;;;3.93;;
1390;SDS011;690;51.454;7.194;2023-04-24T02:35:49;6.07;;;5.50;;
1390;SDS011;690;51.454;7.194;2023-04-24T02:38:16;6.70;;;5.43;;
1390;SDS011;690;51.454;7.194;2023-04-24T02:40:43;8.63;;;6.07;;
1390;SDS011;690;51.454;7.194;2023-04-24T02:43:09;9.33;;;6.50;;
1390;SDS011;690;51.454;7.194;2023-04-24T02:45:36;7.70;;;6.67;;
1390;SDS011;690;51.454;7.194;2023-04-24T02:48:05;7.27;;;6.13;;
1390;SDS011;690;51.454;7.194;2023-04-24T02:50:33;8.47;;;6.30;;
1390;SDS011;690;51.454;7.194;2023-04-24T02:53:06;10.20;;;6.83;;
1390;SDS011;690;51.454;7.194;2023-04-24T02:55:32;9.97;;;7.70;;
1390;SDS011;690;51.454;7.194;2023-04-24T02:58:02;10.83;;;7.50;;
1390;SDS011;690;51.454;7.194;2023-04-24T03:00:29;9.53;;;7.43;;
1390;SDS011;690;51.454;7.194;2023-04-24T03:02:56;9.60;;;8.33;;
1390;SDS011;690;51.454;7.194;2023-04-24T03:05:23;10.57;;;8.00;;
1390;SDS011;690;51.454;7.194;2023-04-24T03:07:53;11.67;;;7.77;;
1390;SDS011;690;51.454;7.194;2023-04-24T03:10:20;12.40;;;8.70;;
1390;SDS011;690;51.454;7.194;2023-04-24T03:12:49;12.20;;;9.07;;
1390;SDS011;690;51.454;7.194;2023-04-24T03:15:22;14.93;;;9.50;;
1390;SDS011;690;51.454;7.194;2023-04-24T03:17:49;11.43;;;8.90;;
1390;SDS011;690;51.454;7.194;2023-04-24T03:20:17;10.87;;;8.83;;
1390;SDS011;690;51.454;7.194;2023-04-24T03:22:46;14.50;;;10.30;;
1390;SDS011;690;51.454;7.194;2023-04-24T03:25:16;12.53;;;8.87;;
1390;SDS011;690;51.454;7.194;2023-04-24T03:27:43;14.23;;;9.07;;
1390;SDS011;690;51.454;7.194;2023-04-24T03:30:10;11.00;;;9.10;;
1390;SDS011;690;51.454;7.194;2023-04-24T03:32:37;10.97;;;8.60;;
1390;SDS011;690;51.454;7.194;2023-04-24T03:35:05;13.50;;;9.30;;
1390;SDS011;690;51.454;7.194;2023-04-24T03:37:33;10.10;;;8.53;;
1390;SDS011;690;51.454;7.194;2023-04-24T03:40:00;9.20;;;7.80;;
1390;SDS011;690;51.454;7.194;2023-04-24T03:42:29;15.43;;;10.20;;
1390;SDS011;690;51.454;7.194;2023-04-24T03:44:56;11.57;;;9.87;;
1390;SDS011;690;51.454;7.194;2023-04-24T03:47:23;15.13;;;11.23;;
1390;SDS011;690;51.454;7.194;2023-04-24T03:49:50;11.00;;;9.70;;
1390;SDS011;690;51.454;7.194;2023-04-24T03:52:17;10.30;;;9.03;;
1390;SDS011;690;51.454;7.194;2023-04-24T03:54:44;13.83;;;10.00;;
1390;SDS011;690;51.454;7.194;2023-04-24T03:57:11;12.93;;;9.70;;
1390;SDS011;690;51.454;7.194;2023-04-24T03:59:41;12.57;;;9.77;;
1390;SDS011;690;51.454;7.194;2023-04-24T04:02:32;15.53;;;10.47;;
1390;SDS011;690;51.454;7.194;2023-04-24T04:05:23;14.47;;;10.00;;
1390;SDS011;690;51.454;7.194;2023-04-24T04:08:14;13.73;;;9.00;;
1390;SDS011;690;51.454;7.194;2023-04-24T04:11:07;12.90;;;9.50;;
1390;SDS011;690;51.454;7.194;2023-04-24T04:13:58;13.90;;;9.97;;
1390;SDS011;690;51.454;7.194;2023-04-24T04:16:50;15.10;;;10.50;;
1390;SDS011;690;51.454;7.194;2023-04-24T04:19:41;14.00;;;10.90;;
1390;SDS011;690;51.454;7.194;2023-04-24T04:22:32;12.77;;;10.63;;
1390;SDS011;690;51.454;7.194;2023-04-24T04:25:23;11.47;;;9.90;;
1390;SDS011;690;51.454;7.194;2023-04-24T04:28:14;13.43;;;10.43;;
1390;SDS011;690;51.454;7.194;2023-04-24T04:31:05;14.20;;;10.70;;
1390;SDS011;690;51.454;7.194;2023-04-24T04:33:57;12.23;;;10.37;;
1390;SDS011;690;51.454;7.194;2023-04-24T04:36:48;15.87;;;12.00;;
1390;SDS011;690;51.454;7.194;2023-04-24T04:39:39;12.53;;;11.20;;
1390;SDS011;690;51.454;7.194;2023-04-24T04:42:30;13.40;;;10.47;;
1390;SDS011;690;51.454;7.194;2023-04-24T04:45:21;12.40;;;9.83;;
1390;SDS011;690;51.454;7.194;2023-04-24T04:48:12;12.63;;;9.60;;
1390;SDS011;690;51.454;7.194;2023-04-24T04:51:04;13.53;;;10.03;;
1390;SDS011;690;51.454;7.194;2023-04-24T04:53:56;14.53;;;10.70;;
1390;SDS011;690;51.454;7.194;2023-04-24T04:56:47;15.97;;;11.00;;
1390;SDS011;690;51.454;7.194;2023-04-24T04:59:40;12.17;;;10.17;;
1390;SDS011;690;51.454;7.194;2023-04-24T05:02:34;14.50;;;10.43;;
1390;SDS011;690;51.454;7.194;2023-04-24T05:05:27;13.67;;;10.30;;
1390;SDS011;690;51.454;7.194;2023-04-24T05:08:19;12.57;;;10.07;;
1390;SDS011;690;51.454;7.194;2023-04-24T05:11:10;12.17;;;10.53;;
1390;SDS011;690;51.454;7.194;2023-04-24T05:14:01;12.13;;;9.60;;
1390;SDS011;690;51.454;7.194;2023-04-24T05:16:52;12.67;;;10.43;;
1390;SDS011;690;51.454;7.194;2023-04-24T05:19:22;10.60;;;9.50;;
1390;SDS011;690;51.454;7.194;2023-04-24T05:21:49;14.47;;;9.30;;
1390;SDS011;690;51.454;7.194;2023-04-24T05:24:17;12.23;;;9.70;;
1390;SDS011;690;51.454;7.194;2023-04-24T05:26:46;11.13;;;8.77;;
1390;SDS011;690;51.454;7.194;2023-04-24T05:29:13;11.37;;;8.97;;
1390;SDS011;690;51.454;7.194;2023-04-24T05:31:40;12.63;;;8.67;;
1390;SDS011;690;51.454;7.194;2023-04-24T05:34:07;9.47;;;8.40;;
1390;SDS011;690;51.454;7.194;2023-04-24T05:36:34;15.27;;;8.33;;
1390;SDS011;690;51.454;7.194;2023-04-24T05:39:03;15.20;;;9.40;;
1390;SDS011;690;51.454;7.194;2023-04-24T05:41:31;10.77;;;8.00;;
1390;SDS011;690;51.454;7.194;2023-04-24T05:43:58;10.43;;;8.10;;
1390;SDS011;690;51.454;7.194;2023-04-24T05:46:25;9.37;;;7.97;;
1390;SDS011;690;51.454;7.194;2023-04-24T05:48:57;13.57;;;8.90;;
1390;SDS011;690;51.454;7.194;2023-04-24T05:51:25;10.43;;;8.30;;
1390;SDS011;690;51.454;7.194;2023-04-24T05:53:51;8.67;;;7.77;;
1390;SDS011;690;51.454;7.194;2023-04-24T05:56:20;10.53;;;8.60;;
1390;SDS011;690;51.454;7.194;2023-04-24T05:58:49;10.03;;;8.73;;
1390;SDS011;690;51.454;7.194;2023-04-24T06:01:15;14.37;;;8.90;;
1390;SDS011;690;51.454;7.194;2023-04-24T06:03:43;12.33;;;8.83;;
1390;SDS011;690;51.454;7.194;2023-04-24T06:06:10;12.87;;;10.17;;
1390;SDS011;690;51.454;7.194;2023-04-24T06:08:37;11.00;;;8.37;;
1390;SDS011;690;51.454;7.194;2023-04-24T06:11:03;14.17;;;8.90;;
1390;SDS011;690;51.454;7.194;2023-04-24T06:13:30;11.87;;;10.03;;
1390;SDS011;690;51.454;7.194;2023-04-24T06:15:58;11.40;;;9.37;;
1390;SDS011;690;51.454;7.194;2023-04-24T06:18:25;10.17;;;9.00;;
1390;SDS011;690;51.454;7.194;2023-04-24T06:20:52;12.70;;;8.80;;
1390;SDS011;690;51.454;7.194;2023-04-24T06:23:20;9.17;;;8.13;;
1390;SDS011;690;51.454;7.194;2023-04-24T06:25:47;12.23;;;9.67;;
1390;SDS011;690;51.454;7.194;2023-04-24T06:28:13;11.60;;;8.57;;
1390;SDS011;690;51.454;7.194;2023-04-24T06:30:40;11.47;;;8.20;;
1390;SDS011;690;51.454;7.194;2023-04-24T06:33:09;9.20;;;7.23;;
1390;SDS011;690;51.454;7.194;2023-04-24T06:35:36;9.27;;;7.00;;
1390;SDS011;690;51.454;7.194;2023-04-24T06:38:04;9.17;;;7.30;;
1390;SDS011;690;51.454;7.194;2023-04-24T06:40:31;8.67;;;7.70;;
1390;SDS011;690;51.454;7.194;2023-04-24T06:42:58;7.47;;;6.40;;
1390;SDS011;690;51.454;7.194;2023-04-24T06:45:27;11.00;;;7.53;;
1390;SDS011;690;51.454;7.194;2023-04-24T06:47:54;10.13;;;7.20;;
1390;SDS011;690;51.454;7.194;2023-04-24T06:50:23;9.13;;;7.00;;
1390;SDS011;690;51.454;7.194;2023-04-24T06:52:50;11.80;;;8.07;;
1390;SDS011;690;51.454;7.194;2023-04-24T06:55:17;8.73;;;6.67;;
1390;SDS011;690;51.454;7.194;2023-04-24T06:57:44;7.80;;;6.80;;
1390;SDS011;690;51.454;7.194;2023-04-24T07:00:11;9.70;;;7.03;;
1390;SDS011;690;51.454;7.194;2023-04-24T07:02:39;13.93;;;6.43;;
1390;SDS011;690;51.454;7.194;2023-04-24T07:05:06;7.77;;;6.00;;
1390;SDS011;690;51.454;7.194;2023-04-24T07:07:34;6.87;;;5.90;;
1390;SDS011;690;51.454;7.194;2023-04-24T07:10:03;6.30;;;5.70;;
1390;SDS011;690;51.454;7.194;2023-04-24T07:12:30;12.30;;;6.10;;
1390;SDS011;690;51.454;7.194;2023-04-24T07:14:57;5.87;;;5.27;;
1390;SDS011;690;51.454;7.194;2023-04-24T07:17:24;6.97;;;4.93;;
1390;SDS011;690;51.454;7.194;2023-04-24T07:19:50;7.40;;;5.40;;
1390;SDS011;690;51.454;7.194;2023-04-24T07:22:17;5.97;;;5.33;;
1390;SDS011;690;51.454;7.194;2023-04-24T07:24:45;5.33;;;4.83;;
1390;SDS011;690;51.454;7.194;2023-04-24T07:27:12;4.90;;;4.40;;
1390;SDS011;690;51.454;7.194;2023-04-24T07:29:40;7.60;;;4.40;;
1390;SDS011;690;51.454;7.194;2023-04-24T07:32:06;11.33;;;4.50;;
1390;SDS011;690;51.454;7.194;2023-04-24T07:34:34;4.10;;;3.53;;
1390;SDS011;690;51.454;7.194;2023-04-24T07:37:01;5.20;;;4.07;;
1390;SDS011;690;51.454;7.194;2023-04-24T07:39:28;7.07;;;3.17;;
1390;SDS011;690;51.454;7.194;2023-04-24T07:41:57;3.43;;;3.13;;
1390;SDS011;690;51.454;7.194;2023-04-24T07:44:24;3.40;;;3.10;;
1390;SDS011;690;51.454;7.194;2023-04-24T07:46:51;3.83;;;3.13;;
1390;SDS011;690;51.454;7.194;2023-04-24T07:49:18;4.63;;;2.53;;
1390;SDS011;690;51.454;7.194;2023-04-24T07:51:45;8.93;;;3.33;;
1390;SDS011;690;51.454;7.194;2023-04-24T07:54:12;2.73;;;2.43;;
1390;SDS011;690;51.454;7.194;2023-04-24T07:56:40;2.40;;;2.20;;
1390;SDS011;690;51.454;7.194;2023-04-24T07:59:09;2.53;;;2.33;;
1390;SDS011;690;51.454;7.194;2023-04-24T08:01:36;2.53;;;2.33;;
1390;SDS011;690;51.454;7.194;2023-04-24T08:04:03;2.60;;;2.40;;
1390;SDS011;690;51.454;7.194;2023-04-24T08:06:30;2.73;;;2.13;;
1390;SDS011;690;51.454;7.194;2023-04-24T08:08:57;4.23;;;3.13;;
1390;SDS011;690;51.454;7.194;2023-04-24T08:11:26;3.10;;;2.33;;
1390;SDS011;690;51.454;7.194;2023-04-24T08:13:53;1.87;;;1.70;;
1390;SDS011;690;51.454;7.194;2023-04-24T08:16:21;1.30;;;1.20;;
1390;SDS011;690;51.454;7.194;2023-04-24T08:18:48;2.07;;;1.40;;
1390;SDS011;690;51.454;7.194;2023-04-24T08:21:16;2.77;;;1.30;;
1390;SDS011;690;51.454;7.194;2023-04-24T08:23:43;4.87;;;1.30;;
1390;SDS011;690;51.454;7.194;2023-04-24T08:26:10;0.80;;;0.80;;
1390;SDS011;690;51.454;7.194;2023-04-24T08:28:37;1.17;;;0.90;;
1390;SDS011;690;51.454;7.194;2023-04-24T08:31:04;4.13;;;1.60;;
1390;SDS011;690;51.454;7.194;2023-04-24T08:33:32;0.97;;;0.87;;
1390;SDS011;690;51.454;7.194;2023-04-24T08:36:00;1.00;;;0.90;;
1390;SDS011;690;51.454;7.194;2023-04-24T08:38:27;1.07;;;0.80;;
1390;SDS011;690;51.454;7.194;2023-04-24T08:40:55;1.37;;;0.97;;
1390;SDS011;690;51.454;7.194;2023-04-24T08:43:24;0.77;;;0.77;;
1390;SDS011;690;51.454;7.194;2023-04-24T08:45:52;1.03;;;0.93;;
1390;SDS011;690;51.454;7.194;2023-04-24T08:48:19;1.20;;;1.10;;
1390;SDS011;690;51.454;7.194;2023-04-24T08:50:49;2.37;;;2.17;;
1390;SDS011;690;51.454;7.194;2023-04-24T08:53:17;1.27;;;1.17;;
1390;SDS011;690;51.454;7.194;2023-04-24T08:55:45;2.27;;;0.80;;
1390;SDS011;690;51.454;7.194;2023-04-24T08:58:14;2.93;;;1.37;;
1390;SDS011;690;51.454;7.194;2023-04-24T09:00:43;1.93;;;1.20;;
1390;SDS011;690;51.454;7.194;2023-04-24T09:03:12;3.30;;;1.87;;
1390;SDS011;690;51.454;7.194;2023-04-24T09:05:41;1.63;;;1.50;;
1390;SDS011;690;51.454;7.194;2023-04-24T09:08:12;1.83;;;1.50;;
1390;SDS011;690;51.454;7.194;2023-04-24T09:10:40;1.73;;;1.63;;
1390;SDS011;690;51.454;7.194;2023-04-24T09:13:07;2.60;;;2.40;;
1390;SDS011;690;51.454;7.194;2023-04-24T09:15:35;2.57;;;1.90;;
1390;SDS011;690;51.454;7.194;2023-04-24T09:18:02;3.03;;;2.60;;
1390;SDS011;690;51.454;7.194;2023-04-24T09:20:30;3.67;;;2.47;;
1390;SDS011;690;51.454;7.194;2023-04-24T09:22:57;3.13;;;2.80;;
1390;SDS011;690;51.454;7.194;2023-04-24T09:25:26;2.77;;;2.47;;
1390;SDS011;690;51.454;7.194;2023-04-24T09:28:00;3.17;;;2.87;;
1390;SDS011;690;51.454;7.194;2023-04-24T09:30:28;6.03;;;4.40;;
1390;SDS011;690;51.454;7.194;2023-04-24T09:33:10;2.97;;;2.77;;
1390;SDS011;690;51.454;7.194;2023-04-24T09:35:40;6.83;;;5.63;;
1390;SDS011;690;51.454;7.194;2023-04-24T09:38:08;6.20;;;5.60;;
1390;SDS011;690;51.454;7.194;2023-04-24T09:40:37;4.33;;;3.93;;
1390;SDS011;690;51.454;7.194;2023-04-24T09:43:03;4.23;;;3.23;;
1390;SDS011;690;51.454;7.194;2023-04-24T09:45:34;4.40;;;3.13;;
1390;SDS011;690;51.454;7.194;2023-04-24T09:48:02;4.77;;;4.37;;
1390;SDS011;690;51.454;7.194;2023-04-24T09:50:31;4.03;;;3.73;;
1390;SDS011;690;51.454;7.194;2023-04-24T09:53:01;3.50;;;3.20;;
1390;SDS011;690;51.454;7.194;2023-04-24T09:55:29;5.60;;;3.50;;
1390;SDS011;690;51.454;7.194;2023-04-24T09:57:58;3.20;;;2.50;;
1390;SDS011;690;51.454;7.194;2023-04-24T10:00:30;3.97;;;2.60;;
1390;SDS011;690;51.454;7.194;2023-04-24T10:02:59;2.30;;;2.10;;
1390;SDS011;690;51.454;7.194;2023-04-24T10:05:27;3.67;;;2.90;;
1390;SDS011;690;51.454;7.194;2023-04-24T10:08:00;3.50;;;2.90;;
1390;SDS011;690;51.454;7.194;2023-04-24T10:10:28;4.73;;;3.63;;
1390;SDS011;690;51.454;7.194;2023-04-24T10:12:55;7.47;;;3.90;;
1390;SDS011;690;51.454;7.194;2023-04-24T10:15:23;4.67;;;3.00;;
1390;SDS011;690;51.454;7.194;2023-04-24T10:17:52;4.60;;;4.20;;
1390;SDS011;690;51.454;7.194;2023-04-24T10:20:20;5.90;;;3.27;;
1390;SDS011;690;51.454;7.194;2023-04-24T10:22:48;7.17;;;4.67;;
1390;SDS011;690;51.454;7.194;2023-04-24T10:25:16;4.83;;;3.60;;
1390;SDS011;690;51.454;7.194;2023-04-24T10:27:46;6.30;;;4.40;;
1390;SDS011;690;51.454;7.194;2023-04-24T10:30:14;6.73;;;4.80;;
1390;SDS011;690;51.454;7.194;2023-04-24T10:32:42;5.10;;;4.40;;
1390;SDS011;690;51.454;7.194;2023-04-24T10:35:10;6.90;;;4.77;;
1390;SDS011;690;51.454;7.194;2023-04-24T10:37:40;4.60;;;4.20;;
1390;SDS011;690;51.454;7.194;2023-04-24T10:40:09;7.93;;;5.97;;
1390;SDS011;690;51.454;7.194;2023-04-24T10:42:39;6.20;;;4.90;;
1390;SDS011;690;51.454;7.194;2023-04-24T10:45:15;7.23;;;4.80;;
1390;SDS011;690;51.454;7.194;2023-04-24T10:47:51;8.03;;;5.43;;
1390;SDS011;690;51.454;7.194;2023-04-24T10:50:19;6.50;;;5.47;;
1390;SDS011;690;51.454;7.194;2023-04-24T10:52:46;7.00;;;5.30;;
1390;SDS011;690;51.454;7.194;2023-04-24T10:55:16;6.33;;;4.70;;
1390;SDS011;690;51.454;7.194;2023-04-24T10:58:03;9.93;;;5.30;;
1390;SDS011;690;51.454;7.194;2023-04-24T11:00:30;11.33;;;6.07;;
1390;SDS011;690;51.454;7.194;2023-04-24T11:02:59;7.97;;;5.70;;
1390;SDS011;690;51.454;7.194;2023-04-24T11:05:48;8.43;;;6.17;;
1390;SDS011;690;51.454;7.194;2023-04-24T11:08:21;6.97;;;5.60;;
1390;SDS011;690;51.454;7.194;2023-04-24T11:10:56;12.90;;;7.33;;
1390;SDS011;690;51.454;7.194;2023-04-24T11:13:25;10.13;;;6.87;;
1390;SDS011;690;51.454;7.194;2023-04-24T11:16:12;15.30;;;7.03;;
1390;SDS011;690;51.454;7.194;2023-04-24T11:18:42;12.70;;;6.50;;
1390;SDS011;690;51.454;7.194;2023-04-24T11:21:16;10.97;;;6.93;;
1390;SDS011;690;51.454;7.194;2023-04-24T11:23:44;15.27;;;6.90;;
1390;SDS011;690;51.454;7.194;2023-04-24T11:26:11;10.87;;;7.40;;
1390;SDS011;690;51.454;7.194;2023-04-24T11:28:44;11.47;;;7.70;;
1390;SDS011;690;51.454;7.194;2023-04-24T11:34:10;8.30;;;6.93;;
1390;SDS011;690;51.454;7.194;2023-04-24T11:36:39;11.77;;;6.93;;
1390;SDS011;690;51.454;7.194;2023-04-24T11:39:06;9.87;;;6.03;;
1390;SDS011;690;51.454;7.194;2023-04-24T11:41:33;11.90;;;7.43;;
1390;SDS011;690;51.454;7.194;2023-04-24T11:44:00;11.90;;;7.53;;
1390;SDS011;690;51.454;7.194;2023-04-24T11:46:29;13.90;;;6.30;;
1390;SDS011;690;51.454;7.194;2023-04-24T11:48:57;11.77;;;6.60;;
1390;SDS011;690;51.454;7.194;2023-04-24T11:51:26;12.30;;;6.30;;
1390;SDS011;690;51.454;7.194;2023-04-24T11:53:53;13.60;;;8.17;;
1390;SDS011;690;51.454;7.194;2023-04-24T11:56:21;14.53;;;8.67;;
1390;SDS011;690;51.454;7.194;2023-04-24T11:58:51;9.50;;;6.60;;
1390;SDS011;690;51.454;7.194;2023-04-24T12:01:18;20.27;;;7.60;;
1390;SDS011;690;51.454;7.194;2023-04-24T12:03:47;14.00;;;7.60;;
1390;SDS011;690;51.454;7.194;2023-04-24T12:06:16;13.10;;;6.67;;
1390;SDS011;690;51.454;7.194;2023-04-24T12:08:46;22.03;;;5.50;;
1390;SDS011;690;51.454;7.194;2023-04-24T12:11:14;11.93;;;4.43;;
1390;SDS011;690;51.454;7.194;2023-04-24T12:13:44;8.10;;;4.53;;
1390;SDS011;690;51.454;7.194;2023-04-24T12:16:11;9.77;;;5.70;;
1390;SDS011;690;51.454;7.194;2023-04-24T12:18:41;8.20;;;4.77;;
1390;SDS011;690;51.454;7.194;2023-04-24T12:21:20;7.33;;;4.07;;
1390;SDS011;690;51.454;7.194;2023-04-24T12:23:53;8.53;;;4.53;;
1390;SDS011;690;51.454;7.194;2023-04-24T12:26:21;5.47;;;3.70;;
1390;SDS011;690;51.454;7.194;2023-04-24T12:28:48;9.67;;;3.43;;
1390;SDS011;690;51.454;7.194;2023-04-24T12:31:16;8.03;;;4.13;;
1390;SDS011;690;51.454;7.194;2023-04-24T12:33:43;4.47;;;3.23;;
1390;SDS011;690;51.454;7.194;2023-04-24T12:36:10;11.93;;;3.97;;
1390;SDS011;690;51.454;7.194;2023-04-24T12:38:38;12.40;;;3.50;;
1390;SDS011;690;51.454;7.194;2023-04-24T12:41:11;5.27;;;3.80;;
1390;SDS011;690;51.454;7.194;2023-04-24T12:43:50;5.07;;;3.30;;
1390;SDS011;690;51.454;7.194;2023-04-24T12:46:18;6.20;;;3.53;;
1390;SDS011;690;51.454;7.194;2023-04-24T12:48:45;5.10;;;3.60;;
1390;SDS011;690;51.454;7.194;2023-04-24T12:51:12;12.00;;;4.20;;
1390;SDS011;690;51.454;7.194;2023-04-24T12:53:39;10.43;;;4.93;;
1390;SDS011;690;51.454;7.194;2023-04-24T12:56:06;5.80;;;3.93;;
1390;SDS011;690;51.454;7.194;2023-04-24T12:58:34;4.43;;;3.43;;
1390;SDS011;690;51.454;7.194;2023-04-24T13:01:01;6.13;;;4.33;;
1390;SDS011;690;51.454;7.194;2023-04-24T13:03:28;8.13;;;4.30;;
1390;SDS011;690;51.454;7.194;2023-04-24T13:05:55;5.03;;;3.00;;
1390;SDS011;690;51.454;7.194;2023-04-24T13:08:21;5.87;;;3.57;;
1390;SDS011;690;51.454;7.194;2023-04-24T13:10:49;8.10;;;3.30;;
1390;SDS011;690;51.454;7.194;2023-04-24T13:13:17;8.70;;;3.53;;
1390;SDS011;690;51.454;7.194;2023-04-24T13:15:45;4.20;;;2.87;;
1390;SDS011;690;51.454;7.194;2023-04-24T13:18:12;4.47;;;2.60;;
1390;SDS011;690;51.454;7.194;2023-04-24T13:20:38;3.30;;;2.13;;
1390;SDS011;690;51.454;7.194;2023-04-24T13:23:06;2.73;;;2.30;;
1390;SDS011;690;51.454;7.194;2023-04-24T13:25:34;3.20;;;2.40;;
1390;SDS011;690;51.454;7.194;2023-04-24T13:28:02;5.60;;;2.10;;
1390;SDS011;690;51.454;7.194;2023-04-24T13:30:29;4.10;;;2.77;;
1390;SDS011;690;51.454;7.194;2023-04-24T13:32:57;4.70;;;2.03;;
1390;SDS011;690;51.454;7.194;2023-04-24T13:35:24;5.60;;;2.70;;
1390;SDS011;690;51.454;7.194;2023-04-24T13:37:50;4.60;;;2.97;;
1390;SDS011;690;51.454;7.194;2023-04-24T13:40:17;5.90;;;2.83;;
1390;SDS011;690;51.454;7.194;2023-04-24T13:42:44;3.73;;;2.87;;
1390;SDS011;690;51.454;7.194;2023-04-24T13:45:11;6.07;;;3.70;;
1390;SDS011;690;51.454;7.194;2023-04-24T13:47:38;10.57;;;3.23;;
1390;SDS011;690;51.454;7.194;2023-04-24T13:50:08;4.10;;;2.60;;
1390;SDS011;690;51.454;7.194;2023-04-24T13:52:35;9.37;;;3.40;;
1390;SDS011;690;51.454;7.194;2023-04-24T13:55:02;3.30;;;2.70;;
1390;SDS011;690;51.454;7.194;2023-04-24T13:57:29;5.87;;;3.20;;
1390;SDS011;690;51.454;7.194;2023-04-24T13:59:57;6.70;;;4.53;;
1390;SDS011;690;51.454;7.194;2023-04-24T14:02:28;3.80;;;3.40;;
1390;SDS011;690;51.454;7.194;2023-04-24T14:04:57;3.93;;;2.70;;
1390;SDS011;690;51.454;7.194;2023-04-24T14:07:25;4.30;;;3.03;;
1390;SDS011;690;51.454;7.194;2023-04-24T14:09:52;7.80;;;3.50;;
1390;SDS011;690;51.454;7.194;2023-04-24T14:12:19;7.20;;;2.50;;
1390;SDS011;690;51.454;7.194;2023-04-24T14:14:46;5.83;;;4.03;;
1390;SDS011;690;51.454;7.194;2023-04-24T14:17:14;5.50;;;3.70;;
1390;SDS011;690;51.454;7.194;2023-04-24T14:19:40;5.03;;;2.77;;
1390;SDS011;690;51.454;7.194;2023-04-24T14:22:07;4.00;;;3.43;;
1390;SDS011;690;51.454;7.194;2023-04-24T14:24:35;16.90;;;3.57;;
1390;SDS011;690;51.454;7.194;2023-04-24T14:27:02;6.70;;;3.50;;
1390;SDS011;690;51.454;7.194;2023-04-24T14:29:29;6.87;;;2.70;;
1390;SDS011;690;51.454;7.194;2023-04-24T14:31:56;5.63;;;3.00;;
1390;SDS011;690;51.454;7.194;2023-04-24T14:34:23;6.93;;;2.90;;
1390;SDS011;690;51.454;7.194;2023-04-24T14:36:50;3.80;;;2.53;;
1390;SDS011;690;51.454;7.194;2023-04-24T14:39:20;4.17;;;2.57;;
1390;SDS011;690;51.454;7.194;2023-04-24T14:41:51;5.17;;;2.87;;
1390;SDS011;690;51.454;7.194;2023-04-24T14:44:17;3.50;;;2.47;;
1390;SDS011;690;51.454;7.194;2023-04-24T14:46:45;5.30;;;2.70;;
1390;SDS011;690;51.454;7.194;2023-04-24T14:49:12;4.47;;;3.00;;
1390;SDS011;690;51.454;7.194;2023-04-24T14:51:39;4.30;;;2.87;;
1390;SDS011;690;51.454;7.194;2023-04-24T14:54:07;4.80;;;3.10;;
1390;SDS011;690;51.454;7.194;2023-04-24T14:56:34;6.33;;;3.37;;
1390;SDS011;690;51.454;7.194;2023-04-24T14:59:02;4.10;;;3.60;;
1390;SDS011;690;51.454;7.194;2023-04-24T15:01:30;3.10;;;2.80;;
1390;SDS011;690;51.454;7.194;2023-04-24T15:03:59;6.10;;;3.57;;
1390;SDS011;690;51.454;7.194;2023-04-24T15:06:26;4.27;;;3.80;;
1390;SDS011;690;51.454;7.194;2023-04-24T15:08:52;4.90;;;4.37;;
1390;SDS011;690;51.454;7.194;2023-04-24T15:11:19;6.97;;;4.33;;
1390;SDS011;690;51.454;7.194;2023-04-24T15:13:46;6.67;;;4.63;;
1390;SDS011;690;51.454;7.194;2023-04-24T15:16:20;5.20;;;4.37;;
1390;SDS011;690;51.454;7.194;2023-04-24T15:18:47;5.50;;;3.73;;
1390;SDS011;690;51.454;7.194;2023-04-24T15:21:14;5.43;;;3.93;;
1390;SDS011;690;51.454;7.194;2023-04-24T15:23:41;5.43;;;3.03;;
1390;SDS011;690;51.454;7.194;2023-04-24T15:26:07;2.93;;;2.63;;
1390;SDS011;690;51.454;7.194;2023-04-24T15:28:34;4.07;;;3.60;;
1390;SDS011;690;51.454;7.194;2023-04-24T15:31:01;2.90;;;2.10;;
1390;SDS011;690;51.454;7.194;2023-04-24T15:33:29;3.27;;;2.30;;
1390;SDS011;690;51.454;7.194;2023-04-24T15:35:59;3.10;;;1.73;;
1390;SDS011;690;51.454;7.194;2023-04-24T15:38:26;4.13;;;2.30;;
1390;SDS011;690;51.454;7.194;2023-04-24T15:40:53;3.97;;;2.10;;
1390;SDS011;690;51.454;7.194;2023-04-24T15:43:20;6.13;;;2.63;;